Time;durP1;ratioP1;P1;durP2;ratioP2;P2;SDS_P1;SDS_P2;PMS_P1;PMS_P2;Temp;Humidity;BMP_temperature;BMP_pressure;BME280_temperature;BME280_humidity;BME280_pressure;Samples;Min_cycle;Max_cycle;Signal;HPM_P1;HPM_P2
2023/10/31 00:02:42;;;;;;;9.87;3.47;;;;;;;;;;12987972;22;20401;-91
2023/10/31 00:07:44;;;;;;;10.48;3.33;;;;;;;;;;12987238;22;20397;-92
2023/10/31 00:12:48;;;;;;;9.90;3.10;;;;;;;;;;12987685;22;20374;-91
2023/10/31 00:17:50;;;;;;;6.55;3.15;;;;;;;;;;12986604;22;20436;-92
2023/10/31 00:22:52;;;;;;;6.63;2.95;;;;;;;;;;12986704;22;20393;-91
2023/10/31 00:27:56;;;;;;;9.13;3.70;;;;;;;;;;12987231;22;20371;-91
2023/10/31 00:32:58;;;;;;;9.05;3.15;;;;;;;;;;12984639;22;20379;-90
2023/10/31 00:38:01;;;;;;;8.80;4.00;;;;;;;;;;12981382;22;20382;-91
2023/10/31 00:43:04;;;;;;;6.70;3.13;;;;;;;;;;12985228;22;20367;-91
2023/10/31 00:48:07;;;;;;;12.68;4.00;;;;;;;;;;12986677;22;20366;-91
2023/10/31 00:53:09;;;;;;;7.93;3.60;;;;;;;;;;12986081;22;20367;-91
2023/10/31 00:58:13;;;;;;;10.97;4.23;;;;;;;;;;12986673;22;20383;-91
2023/10/31 01:03:16;;;;;;;6.93;2.83;;;;;;;;;;12986557;22;20359;-91
2023/10/31 01:08:18;;;;;;;10.07;3.37;;;;;;;;;;12989796;22;20414;-91
2023/10/31 01:13:22;;;;;;;6.10;3.35;;;;;;;;;;12986854;22;20416;-91
2023/10/31 01:18:24;;;;;;;9.23;4.22;;;;;;;;;;12985252;22;20382;-91
2023/10/31 01:23:26;;;;;;;8.40;3.60;;;;;;;;;;12985909;22;20366;-91
2023/10/31 01:28:30;;;;;;;9.15;3.53;;;;;;;;;;12985413;22;20397;-91
2023/10/31 01:33:32;;;;;;;5.60;3.30;;;;;;;;;;12984930;22;20420;-91
2023/10/31 01:38:35;;;;;;;7.85;3.95;;;;;;;;;;12984954;22;20425;-91
2023/10/31 01:43:39;;;;;;;8.93;4.13;;;;;;;;;;13006848;22;20366;-90
2023/10/31 01:48:42;;;;;;;9.07;3.85;;;;;;;;;;12986168;22;20366;-91
2023/10/31 01:53:44;;;;;;;12.00;4.67;;;;;;;;;;12984921;22;20362;-91
2023/10/31 01:58:50;;;;;;;11.05;4.22;;;;;;;;;;12984766;22;20424;-91
2023/10/31 02:03:52;;;;;;;7.72;4.10;;;;;;;;;;12984359;22;20827;-91
2023/10/31 02:08:54;;;;;;;8.63;4.07;;;;;;;;;;13003892;22;20366;-84
2023/10/31 02:13:58;;;;;;;10.88;4.75;;;;;;;;;;13007122;22;20366;-91
2023/10/31 02:19:01;;;;;;;7.18;4.22;;;;;;;;;;12984488;22;20451;-84
2023/10/31 02:24:05;;;;;;;8.73;4.47;;;;;;;;;;12984172;22;20393;-91
2023/10/31 02:29:08;;;;;;;9.52;5.20;;;;;;;;;;12957722;22;20362;-91
2023/10/31 02:34:10;;;;;;;9.80;4.80;;;;;;;;;;12986935;22;20424;-91
2023/10/31 02:39:13;;;;;;;9.82;5.80;;;;;;;;;;12985847;22;20841;-91
2023/10/31 02:44:16;;;;;;;12.27;5.40;;;;;;;;;;12989669;22;20366;-91
2023/10/31 02:49:19;;;;;;;10.52;4.85;;;;;;;;;;12987786;22;20424;-91
2023/10/31 02:54:22;;;;;;;9.35;5.30;;;;;;;;;;12988721;22;20367;-91
2023/10/31 02:59:25;;;;;;;7.93;5.10;;;;;;;;;;12988265;22;20374;-91
2023/10/31 03:04:27;;;;;;;11.27;5.23;;;;;;;;;;12988529;22;20362;-91
2023/10/31 03:09:31;;;;;;;8.32;4.95;;;;;;;;;;12988896;22;20366;-92
2023/10/31 03:14:33;;;;;;;8.77;4.97;;;;;;;;;;12988927;22;20374;-91
2023/10/31 03:19:35;;;;;;;7.78;4.90;;;;;;;;;;12988233;22;20383;-92
2023/10/31 03:24:39;;;;;;;8.63;5.50;;;;;;;;;;12988066;22;20366;-90
2023/10/31 03:29:42;;;;;;;10.80;6.13;;;;;;;;;;12988409;22;20362;-91
2023/10/31 03:34:44;;;;;;;10.47;5.97;;;;;;;;;;12986757;22;20362;-91
2023/10/31 03:39:48;;;;;;;10.90;5.50;;;;;;;;;;12986564;22;20383;-91
2023/10/31 03:44:50;;;;;;;8.52;5.65;;;;;;;;;;13009269;22;20393;-91
2023/10/31 03:49:52;;;;;;;13.15;5.50;;;;;;;;;;12988116;22;20896;-92
2023/10/31 03:54:56;;;;;;;9.97;5.77;;;;;;;;;;12989982;22;20367;-91
2023/10/31 03:59:58;;;;;;;8.37;5.30;;;;;;;;;;12987498;22;20440;-91
2023/10/31 04:05:02;;;;;;;10.07;5.05;;;;;;;;;;12987591;22;20389;-91
2023/10/31 04:10:07;;;;;;;7.55;5.00;;;;;;;;;;12987472;22;20362;-91
2023/10/31 04:15:10;;;;;;;8.45;5.10;;;;;;;;;;12988363;22;20830;-90
2023/10/31 04:20:12;;;;;;;11.55;4.78;;;;;;;;;;12987385;22;20382;-91
2023/10/31 04:25:16;;;;;;;9.43;5.60;;;;;;;;;;13007994;22;20432;-91
2023/10/31 04:30:18;;;;;;;7.80;4.93;;;;;;;;;;12986864;22;20459;-90
2023/10/31 04:35:21;;;;;;;8.10;5.03;;;;;;;;;;12986728;22;20367;-91
2023/10/31 04:40:24;;;;;;;8.80;5.18;;;;;;;;;;12985869;22;20378;-92
2023/10/31 04:45:27;;;;;;;8.52;4.82;;;;;;;;;;12986693;22;20882;-91
2023/10/31 04:50:29;;;;;;;9.57;4.93;;;;;;;;;;12986373;22;20843;-91
2023/10/31 04:55:33;;;;;;;8.03;4.50;;;;;;;;;;12986224;22;20424;-91
2023/10/31 05:00:35;;;;;;;8.23;4.25;;;;;;;;;;12986671;22;20408;-91
2023/10/31 05:05:37;;;;;;;9.45;4.43;;;;;;;;;;12986087;22;20359;-91
2023/10/31 05:10:41;;;;;;;7.00;4.15;;;;;;;;;;12986884;22;20839;-91
2023/10/31 05:15:43;;;;;;;8.15;3.28;;;;;;;;;;12984633;22;20363;-91
2023/10/31 05:20:46;;;;;;;8.60;3.30;;;;;;;;;;12984162;22;20374;-91
2023/10/31 05:25:50;;;;;;;5.50;3.03;;;;;;;;;;13006997;22;20371;-91
2023/10/31 05:30:52;;;;;;;7.83;3.70;;;;;;;;;;12985241;22;20374;-91
2023/10/31 05:35:54;;;;;;;7.47;3.08;;;;;;;;;;12985130;22;20421;-91
2023/10/31 05:40:58;;;;;;;5.82;2.90;;;;;;;;;;13005981;22;20436;-92
2023/10/31 05:46:00;;;;;;;5.60;2.60;;;;;;;;;;12985797;22;20410;-90
2023/10/31 05:51:03;;;;;;;6.43;2.37;;;;;;;;;;12984597;22;20359;-91
2023/10/31 05:56:08;;;;;;;6.30;2.43;;;;;;;;;;12984156;22;20366;-90
2023/10/31 06:01:10;;;;;;;5.93;2.90;;;;;;;;;;12984476;22;20417;-91
2023/10/31 06:06:13;;;;;;;5.70;2.80;;;;;;;;;;12983842;22;20374;-91
2023/10/31 06:11:16;;;;;;;7.80;2.60;;;;;;;;;;12984427;22;20371;-91
2023/10/31 06:16:19;;;;;;;9.07;3.00;;;;;;;;;;12982854;22;20379;-92
2023/10/31 06:21:21;;;;;;;8.50;2.38;;;;;;;;;;12984136;22;20363;-92
2023/10/31 06:26:24;;;;;;;3.70;2.10;;;;;;;;;;12983318;22;20363;-91
2023/10/31 06:31:28;;;;;;;6.23;2.23;;;;;;;;;;12982478;22;20374;-91
2023/10/31 06:36:31;;;;;;;6.65;2.35;;;;;;;;;;12983590;22;20904;-92
2023/10/31 06:41:35;;;;;;;6.73;2.43;;;;;;;;;;12982185;22;20433;-92
2023/10/31 06:46:37;;;;;;;4.35;2.28;;;;;;;;;;12984954;22;20428;-92
2023/10/31 06:51:40;;;;;;;4.18;1.90;;;;;;;;;;12999188;22;20818;-91
2023/10/31 06:56:43;;;;;;;6.57;2.70;;;;;;;;;;12981412;22;20409;-92
2023/10/31 07:01:46;;;;;;;4.55;2.78;;;;;;;;;;12984946;22;20359;-91
2023/10/31 07:06:49;;;;;;;44.33;4.55;;;;;;;;;;12983894;22;20371;-91
2023/10/31 07:11:52;;;;;;;6.75;2.60;;;;;;;;;;12986473;22;20367;-91
2023/10/31 07:16:57;;;;;;;7.50;2.95;;;;;;;;;;12984007;22;20448;-92
2023/10/31 07:21:59;;;;;;;7.95;3.10;;;;;;;;;;12984453;22;20896;-91
2023/10/31 07:27:03;;;;;;;7.30;3.17;;;;;;;;;;12984407;22;20397;-91
2023/10/31 07:32:06;;;;;;;7.00;3.03;;;;;;;;;;12988196;22;20838;-91
2023/10/31 07:37:08;;;;;;;7.05;3.00;;;;;;;;;;12990937;22;20378;-91
2023/10/31 07:42:12;;;;;;;6.30;3.05;;;;;;;;;;12987398;22;20363;-91
2023/10/31 07:47:14;;;;;;;5.03;2.50;;;;;;;;;;12988133;22;20424;-91
2023/10/31 07:52:16;;;;;;;8.00;2.37;;;;;;;;;;12987682;22;20370;-92
2023/10/31 07:57:20;;;;;;;4.97;1.88;;;;;;;;;;13008886;22;20691;-91
2023/10/31 08:02:22;;;;;;;6.03;1.80;;;;;;;;;;12988113;22;20427;-91
2023/10/31 08:07:29;;;;;;;4.70;1.60;;;;;;;;;;12991620;22;20397;-91
2023/10/31 08:12:33;;;;;;;4.80;1.88;;;;;;;;;;12986785;22;20432;-91
2023/10/31 08:17:35;;;;;;;2.67;1.30;;;;;;;;;;12986363;22;20402;-91
2023/10/31 08:22:38;;;;;;;5.00;1.60;;;;;;;;;;12988966;22;20409;-91
2023/10/31 08:27:42;;;;;;;3.15;1.90;;;;;;;;;;12984683;22;20370;-91
2023/10/31 08:32:44;;;;;;;5.13;1.73;;;;;;;;;;12986564;22;20367;-91
2023/10/31 08:37:46;;;;;;;6.03;1.80;;;;;;;;;;12986234;22;20375;-91
2023/10/31 08:42:50;;;;;;;4.65;2.35;;;;;;;;;;12984452;22;20367;-90
2023/10/31 08:47:52;;;;;;;5.80;1.90;;;;;;;;;;13007275;22;20379;-91
2023/10/31 08:52:55;;;;;;;5.43;2.10;;;;;;;;;;12986334;22;20363;-91
2023/10/31 08:57:58;;;;;;;6.22;2.45;;;;;;;;;;12981322;22;20386;-91
2023/10/31 09:03:01;;;;;;;4.22;2.58;;;;;;;;;;12986910;22;20362;-93
2023/10/31 09:08:03;;;;;;;5.97;2.60;;;;;;;;;;13006347;22;20995;-91
2023/10/31 09:13:07;;;;;;;3.05;2.00;;;;;;;;;;12988236;22;20393;-92
2023/10/31 09:18:10;;;;;;;4.03;1.00;;;;;;;;;;12984869;22;20379;-91
2023/10/31 09:23:12;;;;;;;1.42;0.65;;;;;;;;;;12983169;22;20397;-91
2023/10/31 09:28:16;;;;;;;0.45;0.30;;;;;;;;;;12983237;22;20440;-90
2023/10/31 09:33:18;;;;;;;1.50;0.50;;;;;;;;;;12854881;22;20475;-90
2023/10/31 09:38:20;;;;;;;1.07;0.33;;;;;;;;;;12788054;22;20384;-90
2023/10/31 09:43:24;;;;;;;1.35;0.40;;;;;;;;;;12790656;22;20397;-90
2023/10/31 09:48:26;;;;;;;1.92;0.50;;;;;;;;;;12785554;22;20736;-88
2023/10/31 09:53:33;;;;;;;0.93;0.50;;;;;;;;;;12785210;23;20365;-90
2023/10/31 09:58:39;;;;;;;16.97;2.87;;;;;;;;;;12790817;22;20418;-90
2023/10/31 10:03:41;;;;;;;1.33;0.43;;;;;;;;;;12786673;22;20831;-90
2023/10/31 10:08:44;;;;;;;0.40;0.23;;;;;;;;;;12786954;22;20453;-91
2023/10/31 10:13:47;;;;;;;0.20;0.20;;;;;;;;;;12788490;22;20429;-90
2023/10/31 10:18:50;;;;;;;0.52;0.30;;;;;;;;;;12787556;22;20449;-90
2023/10/31 10:23:53;;;;;;;4.03;0.80;;;;;;;;;;12787071;22;20371;-90
2023/10/31 10:28:57;;;;;;;3.47;0.68;;;;;;;;;;12786567;22;20368;-90
2023/10/31 10:34:02;;;;;;;0.88;0.50;;;;;;;;;;12807730;23;20376;-90
2023/10/31 10:39:04;;;;;;;0.30;0.17;;;;;;;;;;12784900;22;20526;-92
2023/10/31 10:44:09;;;;;;;8.80;1.10;;;;;;;;;;12786747;23;20852;-91
2023/10/31 10:49:15;;;;;;;1.40;0.20;;;;;;;;;;12784733;23;20376;-90
2023/10/31 10:54:25;;;;;;;0.35;0.10;;;;;;;;;;12785577;23;20367;-91
2023/10/31 10:59:39;;;;;;;0.53;0.40;;;;;;;;;;12785859;23;20388;-90
2023/10/31 11:04:43;;;;;;;2.90;0.50;;;;;;;;;;12788668;23;20439;-91
2023/10/31 11:09:46;;;;;;;0.30;0.20;;;;;;;;;;12790040;22;20372;-91
2023/10/31 11:14:50;;;;;;;0.22;0.20;;;;;;;;;;12789032;23;20402;-91
2023/10/31 11:19:55;;;;;;;1.90;0.40;;;;;;;;;;12788510;23;20433;-90
2023/10/31 11:24:58;;;;;;;1.05;0.30;;;;;;;;;;12793392;22;20372;-90
2023/10/31 11:30:01;;;;;;;0.30;0.30;;;;;;;;;;12788054;23;20376;-91
2023/10/31 11:35:04;;;;;;;0.65;0.38;;;;;;;;;;12789315;22;20368;-91
2023/10/31 11:40:17;;;;;;;0.20;0.20;;;;;;;;;;12807626;23;20850;-91
2023/10/31 11:45:29;;;;;;;1.43;0.30;;;;;;;;;;12787506;23;20368;-90
2023/10/31 11:50:32;;;;;;;0.30;0.30;;;;;;;;;;12808234;23;20376;-91
2023/10/31 11:55:36;;;;;;;0.90;0.45;;;;;;;;;;12808163;23;20368;-90
2023/10/31 12:00:40;;;;;;;3.57;0.53;;;;;;;;;;12788395;23;20388;-91
2023/10/31 12:05:52;;;;;;;1.52;0.60;;;;;;;;;;12787769;23;20369;-91
2023/10/31 12:10:54;;;;;;;0.90;0.57;;;;;;;;;;12791382;23;20402;-91
2023/10/31 12:15:58;;;;;;;1.02;0.60;;;;;;;;;;12798859;22;20906;-91
2023/10/31 12:21:01;;;;;;;1.30;0.60;;;;;;;;;;12787702;23;20441;-91
2023/10/31 12:26:04;;;;;;;1.80;0.60;;;;;;;;;;12788416;22;20372;-90
2023/10/31 12:31:08;;;;;;;2.08;0.70;;;;;;;;;;12788963;22;20514;-90
2023/10/31 12:36:11;;;;;;;26.50;3.05;;;;;;;;;;12808011;23;20372;-91
2023/10/31 12:41:13;;;;;;;10.50;1.45;;;;;;;;;;12787376;23;20379;-91
2023/10/31 12:46:30;;;;;;;1.23;0.50;;;;;;;;;;12787394;23;20364;-91
2023/10/31 12:51:32;;;;;;;0.32;0.20;;;;;;;;;;12788245;23;20356;-90
2023/10/31 12:56:41;;;;;;;1.20;0.40;;;;;;;;;;12787527;23;20380;-90
2023/10/31 13:01:45;;;;;;;3.28;0.90;;;;;;;;;;12793039;22;20855;-90
2023/10/31 13:06:56;;;;;;;2.13;0.50;;;;;;;;;;12790474;22;21139;-90
2023/10/31 13:12:01;;;;;;;1.30;0.50;;;;;;;;;;12786497;23;20376;-90
2023/10/31 13:17:05;;;;;;;0.90;0.40;;;;;;;;;;12782084;23;20380;-90
2023/10/31 13:22:07;;;;;;;1.00;0.40;;;;;;;;;;12780072;23;20414;-90
2023/10/31 13:27:15;;;;;;;0.98;0.50;;;;;;;;;;12780150;23;20392;-91
2023/10/31 13:32:20;;;;;;;0.85;0.40;;;;;;;;;;12775190;23;20868;-91
2023/10/31 13:37:22;;;;;;;1.17;0.33;;;;;;;;;;12778342;23;20384;-91
2023/10/31 13:42:25;;;;;;;2.20;0.47;;;;;;;;;;12799119;23;20872;-90
2023/10/31 13:47:30;;;;;;;1.33;0.50;;;;;;;;;;12805088;23;20692;-89
2023/10/31 13:52:32;;;;;;;0.60;0.50;;;;;;;;;;12804860;23;20356;-89
2023/10/31 13:57:34;;;;;;;1.25;0.60;;;;;;;;;;12785148;23;20376;-90
2023/10/31 14:02:39;;;;;;;0.90;0.50;;;;;;;;;;12786852;22;20526;-90
2023/10/31 14:07:42;;;;;;;0.50;0.40;;;;;;;;;;12786900;23;20824;-90
2023/10/31 14:12:44;;;;;;;1.07;0.40;;;;;;;;;;12787524;22;20376;-93
2023/10/31 14:17:48;;;;;;;1.63;0.60;;;;;;;;;;12790210;23;20840;-89
2023/10/31 14:22:50;;;;;;;2.90;0.50;;;;;;;;;;12788306;23;20919;-89
2023/10/31 14:27:52;;;;;;;0.80;0.60;;;;;;;;;;12804069;23;20425;-89
2023/10/31 14:32:56;;;;;;;0.60;0.50;;;;;;;;;;12785580;23;21097;-89
2023/10/31 14:37:58;;;;;;;0.90;0.60;;;;;;;;;;12793638;23;20432;-89
2023/10/31 14:43:01;;;;;;;3.92;1.70;;;;;;;;;;12794632;22;20391;-89
2023/10/31 14:48:04;;;;;;;2.45;1.08;;;;;;;;;;12792947;23;20428;-89
2023/10/31 14:53:09;;;;;;;1.20;0.55;;;;;;;;;;12794905;23;20368;-89
2023/10/31 14:58:11;;;;;;;1.30;0.52;;;;;;;;;;12793698;22;20368;-89
2023/10/31 15:03:15;;;;;;;2.17;0.50;;;;;;;;;;12792942;23;20411;-89
2023/10/31 15:08:17;;;;;;;1.42;0.47;;;;;;;;;;12812429;23;20367;-89
2023/10/31 15:13:19;;;;;;;1.38;0.60;;;;;;;;;;12809046;23;20371;-89
2023/10/31 15:18:23;;;;;;;0.70;0.30;;;;;;;;;;12789289;22;20368;-89
2023/10/31 15:23:26;;;;;;;1.10;0.40;;;;;;;;;;12812503;23;20383;-90
2023/10/31 15:28:29;;;;;;;1.55;0.30;;;;;;;;;;12792800;22;20372;-88
2023/10/31 15:33:33;;;;;;;0.85;0.40;;;;;;;;;;12792618;22;20376;-88
2023/10/31 15:38:35;;;;;;;0.40;0.22;;;;;;;;;;12791278;23;20368;-87
2023/10/31 15:43:37;;;;;;;0.20;0.20;;;;;;;;;;12790744;23;20388;-88
2023/10/31 15:48:41;;;;;;;1.60;0.60;;;;;;;;;;12787565;23;20448;-86
2023/10/31 15:53:44;;;;;;;1.13;0.70;;;;;;;;;;12802136;23;20360;-87
2023/10/31 15:58:46;;;;;;;2.75;1.08;;;;;;;;;;12784870;22;20376;-88
2023/10/31 16:03:50;;;;;;;3.63;1.30;;;;;;;;;;12785254;23;20425;-88
2023/10/31 16:08:52;;;;;;;2.70;1.50;;;;;;;;;;12785135;23;20422;-86
2023/10/31 16:13:55;;;;;;;7.18;2.40;;;;;;;;;;12803821;23;20742;-87
2023/10/31 16:18:59;;;;;;;4.03;2.03;;;;;;;;;;12783444;23;20368;-86
2023/10/31 16:24:01;;;;;;;3.88;2.10;;;;;;;;;;12782575;23;20441;-85
2023/10/31 16:29:03;;;;;;;4.03;2.10;;;;;;;;;;12779745;23;20372;-85
2023/10/31 16:34:07;;;;;;;5.93;3.40;;;;;;;;;;12782055;22;20376;-85
2023/10/31 16:39:10;;;;;;;6.05;2.70;;;;;;;;;;12769976;23;20379;-84
2023/10/31 16:44:13;;;;;;;9.20;3.20;;;;;;;;;;12776303;22;20447;-85
2023/10/31 16:49:17;;;;;;;10.45;3.90;;;;;;;;;;12776368;22;20388;-86
2023/10/31 16:54:19;;;;;;;6.67;2.23;;;;;;;;;;12774663;23;20372;-87
2023/10/31 16:59:21;;;;;;;7.13;3.33;;;;;;;;;;12775761;22;20437;-86
2023/10/31 17:04:25;;;;;;;7.95;3.15;;;;;;;;;;12774201;23;20441;-87
2023/10/31 17:09:27;;;;;;;3.97;2.88;;;;;;;;;;12773299;23;20437;-86
2023/10/31 17:14:30;;;;;;;6.00;4.05;;;;;;;;;;12773295;23;20437;-90
2023/10/31 17:19:34;;;;;;;7.50;4.30;;;;;;;;;;12783674;23;20402;-87
2023/10/31 17:24:36;;;;;;;5.47;3.57;;;;;;;;;;12774727;22;20912;-87
2023/10/31 17:29:38;;;;;;;12.33;9.47;;;;;;;;;;12775437;22;20387;-87
2023/10/31 17:34:44;;;;;;;6.95;5.30;;;;;;;;;;12788380;23;20425;-86
2023/10/31 17:39:46;;;;;;;11.52;7.03;;;;;;;;;;12787555;23;20384;-87
2023/10/31 17:44:49;;;;;;;12.13;8.13;;;;;;;;;;12778091;22;20456;-87
2023/10/31 17:49:52;;;;;;;10.82;5.50;;;;;;;;;;12795058;23;20380;-86
2023/10/31 17:54:55;;;;;;;8.63;5.28;;;;;;;;;;12777045;22;20441;-87
2023/10/31 17:59:58;;;;;;;13.93;7.10;;;;;;;;;;12779504;22;20376;-85
2023/10/31 18:05:04;;;;;;;18.75;9.77;;;;;;;;;;12775845;23;20445;-87
2023/10/31 18:10:08;;;;;;;82.80;42.50;;;;;;;;;;12777463;22;20437;-87
2023/10/31 18:15:11;;;;;;;10.57;5.30;;;;;;;;;;12776626;22;20772;-87
2023/10/31 18:20:15;;;;;;;12.47;8.67;;;;;;;;;;12776296;23;20853;-87
2023/10/31 18:25:17;;;;;;;10.80;7.72;;;;;;;;;;12775632;23;20387;-88
2023/10/31 18:30:20;;;;;;;11.77;7.90;;;;;;;;;;12776698;23;20387;-89
2023/10/31 18:35:28;;;;;;;40.42;23.98;;;;;;;;;;12778973;23;20441;-89
2023/10/31 18:40:32;;;;;;;14.63;8.07;;;;;;;;;;12774927;22;20504;-85
2023/10/31 18:45:34;;;;;;;11.05;5.60;;;;;;;;;;12777251;23;20388;-87
2023/10/31 18:50:38;;;;;;;9.47;5.50;;;;;;;;;;12779957;23;20380;-88
2023/10/31 18:55:40;;;;;;;12.18;9.02;;;;;;;;;;12777491;22;20437;-91
2023/10/31 19:00:43;;;;;;;8.43;6.32;;;;;;;;;;12777162;22;20920;-88
2023/10/31 19:05:47;;;;;;;12.07;6.60;;;;;;;;;;12779471;23;20433;-88
2023/10/31 19:10:49;;;;;;;8.65;6.05;;;;;;;;;;12778851;23;20417;-88
2023/10/31 19:15:52;;;;;;;9.82;6.65;;;;;;;;;;12779230;22;20384;-88
2023/10/31 19:20:55;;;;;;;15.25;9.80;;;;;;;;;;12778255;22;20396;-88
2023/10/31 19:25:58;;;;;;;10.00;6.88;;;;;;;;;;12781341;22;20413;-87
2023/10/31 19:31:00;;;;;;;12.82;8.35;;;;;;;;;;12780381;23;20388;-88
2023/10/31 19:36:05;;;;;;;12.40;8.23;;;;;;;;;;12779431;23;20376;-88
2023/10/31 19:41:07;;;;;;;12.18;8.73;;;;;;;;;;12780503;23;20387;-86
2023/10/31 19:46:09;;;;;;;10.80;7.35;;;;;;;;;;12780045;23;20376;-86
2023/10/31 19:51:13;;;;;;;9.35;6.95;;;;;;;;;;12799265;23;20914;-88
2023/10/31 19:56:19;;;;;;;13.82;7.55;;;;;;;;;;12782376;22;20368;-86
2023/10/31 20:01:22;;;;;;;9.00;6.55;;;;;;;;;;12779321;23;20445;-88
2023/10/31 20:06:25;;;;;;;11.90;7.57;;;;;;;;;;12781549;22;20429;-87
2023/10/31 20:11:28;;;;;;;9.50;7.17;;;;;;;;;;12779676;23;20437;-87
2023/10/31 20:16:30;;;;;;;12.23;6.60;;;;;;;;;;12777462;22;20449;-88
2023/10/31 20:21:34;;;;;;;8.37;6.10;;;;;;;;;;12779551;22;20457;-87
2023/10/31 20:26:36;;;;;;;10.57;7.75;;;;;;;;;;12780445;23;20384;-87
2023/10/31 20:31:39;;;;;;;8.55;6.22;;;;;;;;;;12782225;22;20380;-88
2023/10/31 20:36:43;;;;;;;13.00;7.95;;;;;;;;;;12781393;23;20384;-89
2023/10/31 20:41:46;;;;;;;7.60;4.70;;;;;;;;;;12782144;22;21097;-89
2023/10/31 20:46:49;;;;;;;8.27;5.32;;;;;;;;;;12779140;23;20387;-89
2023/10/31 20:51:52;;;;;;;5.00;4.00;;;;;;;;;;12781312;23;20463;-89
2023/10/31 20:56:56;;;;;;;7.20;4.68;;;;;;;;;;12801558;23;20364;-87
2023/10/31 21:01:58;;;;;;;10.30;6.03;;;;;;;;;;12779520;23;20388;-89
2023/10/31 21:07:02;;;;;;;7.85;5.43;;;;;;;;;;12781434;23;20388;-88
2023/10/31 21:12:05;;;;;;;4.65;3.80;;;;;;;;;;12781814;22;20986;-88
2023/10/31 21:17:07;;;;;;;4.88;3.30;;;;;;;;;;12780708;22;20384;-87
2023/10/31 21:22:11;;;;;;;4.88;3.15;;;;;;;;;;12781501;23;20395;-88
2023/10/31 21:27:14;;;;;;;3.08;2.38;;;;;;;;;;12780879;23;20452;-88
2023/10/31 21:32:16;;;;;;;2.63;2.17;;;;;;;;;;12779690;23;20380;-88
2023/10/31 21:37:20;;;;;;;3.15;2.25;;;;;;;;;;12781534;23;20384;-89
2023/10/31 21:42:22;;;;;;;3.97;2.55;;;;;;;;;;12784143;22;21421;-88
2023/10/31 21:47:24;;;;;;;2.92;2.30;;;;;;;;;;12778779;23;20383;-88
2023/10/31 21:52:28;;;;;;;3.42;2.40;;;;;;;;;;12780546;23;20425;-88
2023/10/31 21:57:30;;;;;;;3.47;2.23;;;;;;;;;;12780210;23;21113;-88
2023/10/31 22:02:33;;;;;;;2.67;2.20;;;;;;;;;;12778001;23;20391;-88
2023/10/31 22:07:37;;;;;;;3.10;2.40;;;;;;;;;;12779517;23;20864;-89
2023/10/31 22:12:39;;;;;;;3.83;2.70;;;;;;;;;;12786599;22;20388;-88
2023/10/31 22:17:41;;;;;;;5.95;2.70;;;;;;;;;;12779584;23;20381;-88
2023/10/31 22:22:45;;;;;;;3.30;2.58;;;;;;;;;;12780752;22;20391;-88
2023/10/31 22:27:47;;;;;;;3.63;2.95;;;;;;;;;;12792311;23;20380;-88
2023/10/31 22:32:50;;;;;;;4.95;3.10;;;;;;;;;;12778953;22;20410;-84
2023/10/31 22:37:53;;;;;;;4.32;3.20;;;;;;;;;;12776993;23;20464;-86
2023/10/31 22:42:56;;;;;;;4.82;3.13;;;;;;;;;;12782822;23;20441;-86
2023/10/31 22:47:58;;;;;;;4.20;2.97;;;;;;;;;;12783234;22;20376;-87
2023/10/31 22:53:02;;;;;;;3.85;2.80;;;;;;;;;;12785325;23;20413;-87
2023/10/31 22:58:05;;;;;;;4.00;2.75;;;;;;;;;;12786089;22;20372;-86
2023/10/31 23:03:07;;;;;;;3.33;2.30;;;;;;;;;;12787083;22;20388;-87
2023/10/31 23:08:11;;;;;;;3.83;2.38;;;;;;;;;;12787752;22;20909;-87
2023/10/31 23:13:13;;;;;;;4.30;2.28;;;;;;;;;;12806212;23;20421;-86
2023/10/31 23:18:15;;;;;;;2.97;2.17;;;;;;;;;;12808208;23;20364;-90
2023/10/31 23:23:21;;;;;;;3.10;2.00;;;;;;;;;;12787627;22;20388;-90
2023/10/31 23:28:24;;;;;;;2.50;2.10;;;;;;;;;;12789338;22;20425;-90
2023/10/31 23:33:26;;;;;;;3.92;1.70;;;;;;;;;;12790151;22;20417;-87
2023/10/31 23:38:30;;;;;;;3.67;1.87;;;;;;;;;;12791182;22;20429;-88
2023/10/31 23:43:32;;;;;;;4.28;2.15;;;;;;;;;;12790201;22;20392;-89
2023/10/31 23:48:34;;;;;;;3.65;2.60;;;;;;;;;;12789516;23;20411;-89
2023/10/31 23:53:38;;;;;;;2.80;1.70;;;;;;;;;;12791260;22;20372;-89
2023/10/31 23:58:41;;;;;;;2.70;2.00;;;;;;;;;;12809818;23;20360;-88
